Time;durP1;ratioP1;P1;durP2;ratioP2;P2;SDS_P1;SDS_P2;PMS_P1;PMS_P2;Temp;Humidity;BMP_temperature;BMP_pressure;BME280_temperature;BME280_humidity;BME280_pressure;Samples;Min_cycle;Max_cycle;Signal;HPM_P1;HPM_P2
2021/10/22 00:00:06;;;;;;;5.03;1.37;;;9.30;99.90;;;;;;5004147;28;20178;-82
2021/10/22 00:02:31;;;;;;;3.08;1.02;;;9.20;99.90;;;;;;5011735;28;20448;-83
2021/10/22 00:04:57;;;;;;;2.90;1.40;;;9.10;99.90;;;;;;5002660;28;20269;-82
2021/10/22 00:07:25;;;;;;;5.63;1.20;;;9.10;99.90;;;;;;4991526;28;20209;-83
2021/10/22 00:09:51;;;;;;;5.45;1.10;;;9.10;99.90;;;;;;5022175;28;20328;-84
2021/10/22 00:12:17;;;;;;;2.40;0.93;;;9.00;99.90;;;;;;5015460;28;20233;-82
2021/10/22 00:14:43;;;;;;;1.43;1.17;;;9.00;99.90;;;;;;5000187;28;20183;-83
2021/10/22 00:17:10;;;;;;;8.83;1.40;;;9.10;99.90;;;;;;4986987;28;20184;-82
2021/10/22 00:19:36;;;;;;;8.05;1.23;;;9.10;99.90;;;;;;5021169;28;20170;-82
2021/10/22 00:22:02;;;;;;;1.20;1.02;;;9.00;99.90;;;;;;5022037;28;20758;-83
2021/10/22 00:24:27;;;;;;;1.83;0.80;;;9.10;99.90;;;;;;5004884;28;20225;-83
2021/10/22 00:26:53;;;;;;;8.30;1.40;;;9.00;99.90;;;;;;4987625;28;20653;-83
2021/10/22 00:29:18;;;;;;;2.70;0.97;;;9.10;99.90;;;;;;5006277;28;20268;-83
2021/10/22 00:31:44;;;;;;;8.10;1.63;;;9.00;99.90;;;;;;5023602;28;20185;-84
2021/10/22 00:34:09;;;;;;;3.77;1.30;;;9.00;99.90;;;;;;5024195;28;20190;-82
2021/10/22 00:36:38;;;;;;;1.37;0.83;;;9.00;99.90;;;;;;4997589;28;20175;-83
2021/10/22 00:39:05;;;;;;;4.25;1.10;;;8.90;99.90;;;;;;4983728;28;20236;-83
2021/10/22 00:41:32;;;;;;;1.17;0.90;;;9.00;99.90;;;;;;4989649;28;20174;-82
2021/10/22 00:43:58;;;;;;;14.38;1.50;;;8.80;99.90;;;;;;5022179;28;20394;-83
2021/10/22 00:46:27;;;;;;;2.53;1.60;;;8.90;99.90;;;;;;5003977;28;20197;-83
2021/10/22 00:48:54;;;;;;;5.57;1.00;;;8.90;99.90;;;;;;5005966;28;20175;-83
2021/10/22 00:51:20;;;;;;;2.30;1.27;;;8.90;99.90;;;;;;5020883;28;20181;-83
2021/10/22 00:53:46;;;;;;;4.95;0.90;;;8.90;99.90;;;;;;4989001;28;20617;-82
2021/10/22 00:56:12;;;;;;;3.90;1.30;;;9.00;99.90;;;;;;5008795;28;20170;-82
2021/10/22 00:58:40;;;;;;;1.27;0.80;;;9.00;99.90;;;;;;5009620;28;20254;-82
2021/10/22 01:01:06;;;;;;;7.75;1.17;;;9.00;99.90;;;;;;5004005;28;20228;-83
2021/10/22 01:03:32;;;;;;;5.87;1.40;;;8.90;99.90;;;;;;5002508;28;20564;-83
2021/10/22 01:06:00;;;;;;;3.05;0.70;;;8.90;99.90;;;;;;4984780;28;20457;-82
2021/10/22 01:08:32;;;;;;;1.20;0.77;;;8.80;99.90;;;;;;5021362;28;20174;-84
2021/10/22 01:11:02;;;;;;;4.10;1.20;;;8.90;99.90;;;;;;4991260;28;20238;-83
2021/10/22 01:13:29;;;;;;;3.00;1.35;;;9.00;99.90;;;;;;5000567;28;20213;-82
2021/10/22 01:15:54;;;;;;;3.45;1.48;;;8.90;99.90;;;;;;5014077;28;20185;-83
2021/10/22 01:18:23;;;;;;;6.07;1.60;;;8.90;99.90;;;;;;5021671;28;20178;-82
2021/10/22 01:20:57;;;;;;;3.45;0.88;;;9.00;99.90;;;;;;5022798;28;20180;-82
2021/10/22 01:23:23;;;;;;;4.82;0.90;;;8.80;99.90;;;;;;5009487;28;20581;-83
2021/10/22 01:25:49;;;;;;;5.03;1.07;;;8.90;99.90;;;;;;4987173;28;20289;-82
2021/10/22 01:28:15;;;;;;;4.22;0.95;;;8.80;99.90;;;;;;5012422;28;20192;-82
2021/10/22 01:30:41;;;;;;;9.00;0.90;;;8.80;99.90;;;;;;5008417;28;20594;-82
2021/10/22 01:33:08;;;;;;;3.35;1.20;;;8.80;99.90;;;;;;5004113;28;20159;-82
2021/10/22 01:35:34;;;;;;;1.20;1.10;;;8.90;99.90;;;;;;4971330;28;20179;-82
2021/10/22 01:38:02;;;;;;;1.23;0.80;;;8.80;99.90;;;;;;4969695;28;20175;-82
2021/10/22 01:40:28;;;;;;;3.58;1.70;;;8.90;99.90;;;;;;5006583;28;20241;-83
2021/10/22 01:42:54;;;;;;;1.92;1.00;;;8.80;99.90;;;;;;5021036;28;20178;-82
2021/10/22 01:45:19;;;;;;;6.17;1.10;;;8.90;99.90;;;;;;5021430;28;20186;-83
2021/10/22 01:47:45;;;;;;;4.70;1.20;;;8.80;99.90;;;;;;5033786;28;20233;-83
2021/10/22 01:50:11;;;;;;;1.17;0.93;;;8.70;99.90;;;;;;5029720;28;20166;-82
2021/10/22 01:52:36;;;;;;;4.57;1.17;;;8.80;99.90;;;;;;5014785;28;20163;-84
2021/10/22 01:55:02;;;;;;;1.20;0.80;;;8.90;99.90;;;;;;5012507;28;20228;-83
2021/10/22 01:57:28;;;;;;;5.63;1.30;;;8.90;99.90;;;;;;5016803;28;20174;-82
2021/10/22 01:59:54;;;;;;;2.53;0.80;;;8.90;99.90;;;;;;5022368;28;20358;-82
2021/10/22 02:02:19;;;;;;;1.80;1.03;;;8.90;99.90;;;;;;4998941;28;20179;-81
2021/10/22 02:04:45;;;;;;;3.00;1.03;;;8.90;99.90;;;;;;5011044;28;20198;-82
2021/10/22 02:07:11;;;;;;;7.40;1.17;;;8.90;99.90;;;;;;5023277;28;20206;-81
2021/10/22 02:09:37;;;;;;;1.70;1.10;;;9.00;99.90;;;;;;5027116;28;20189;-83
2021/10/22 02:12:03;;;;;;;3.20;1.15;;;8.90;99.90;;;;;;5038055;28;20178;-82
2021/10/22 02:14:29;;;;;;;1.65;0.90;;;8.90;99.90;;;;;;5030701;28;20209;-83
2021/10/22 02:16:55;;;;;;;3.90;1.60;;;8.80;99.90;;;;;;5014059;28;20179;-82
2021/10/22 02:19:23;;;;;;;2.63;1.27;;;8.80;99.90;;;;;;4989915;28;20209;-81
2021/10/22 02:21:49;;;;;;;2.45;0.82;;;8.80;99.90;;;;;;5026460;28;20424;-83
2021/10/22 02:24:15;;;;;;;7.03;1.63;;;8.80;99.90;;;;;;4993712;28;20211;-83
2021/10/22 02:26:40;;;;;;;5.70;1.57;;;8.90;99.90;;;;;;4991867;28;20620;-83
2021/10/22 02:29:06;;;;;;;6.87;1.30;;;8.80;99.90;;;;;;5023155;28;20193;-83
2021/10/22 02:31:31;;;;;;;5.87;1.30;;;8.80;99.90;;;;;;5016978;28;20209;-83
2021/10/22 02:33:57;;;;;;;2.53;0.80;;;8.80;99.90;;;;;;5027059;28;20190;-83
2021/10/22 02:36:22;;;;;;;5.53;1.30;;;8.80;99.90;;;;;;5035326;28;20185;-83
2021/10/22 02:38:49;;;;;;;3.87;1.03;;;8.80;99.90;;;;;;5023656;28;20221;-83
2021/10/22 02:41:15;;;;;;;4.65;1.35;;;8.90;99.90;;;;;;5014544;28;20190;-83
2021/10/22 02:43:41;;;;;;;4.38;1.17;;;8.80;99.90;;;;;;5009167;28;20290;-82
2021/10/22 02:46:07;;;;;;;1.75;1.38;;;8.80;99.90;;;;;;4985212;28;20198;-83
2021/10/22 02:48:33;;;;;;;9.98;1.45;;;8.70;99.90;;;;;;5000390;28;20174;-82
2021/10/22 02:50:58;;;;;;;9.80;1.30;;;8.80;99.90;;;;;;5001138;28;20657;-83
2021/10/22 02:53:24;;;;;;;3.57;0.90;;;8.80;99.90;;;;;;5013118;28;20599;-82
2021/10/22 02:55:49;;;;;;;8.27;1.70;;;8.70;99.90;;;;;;4999390;28;20178;-83
2021/10/22 02:58:16;;;;;;;4.00;1.00;;;8.60;99.90;;;;;;4982432;28;20253;-83
2021/10/22 03:00:41;;;;;;;3.88;1.73;;;8.60;99.90;;;;;;4990815;28;20279;-83
2021/10/22 03:03:07;;;;;;;5.73;1.30;;;8.80;99.90;;;;;;5018959;28;20217;-84
2021/10/22 03:05:33;;;;;;;4.00;0.70;;;8.70;99.90;;;;;;5002584;28;20178;-83
2021/10/22 03:07:59;;;;;;;8.60;1.50;;;8.60;99.90;;;;;;5019785;28;20177;-81
2021/10/22 03:10:25;;;;;;;3.70;1.00;;;8.60;99.90;;;;;;5022288;28;20535;-84
2021/10/22 03:12:50;;;;;;;8.43;0.90;;;8.60;99.90;;;;;;5007527;28;20178;-81
2021/10/22 03:15:16;;;;;;;1.97;1.00;;;8.50;99.90;;;;;;4981912;28;20195;-84
2021/10/22 03:17:42;;;;;;;6.45;1.33;;;8.60;99.90;;;;;;5011220;28;20665;-82
2021/10/22 03:20:08;;;;;;;7.73;1.20;;;8.60;99.90;;;;;;5019102;28;20170;-84
2021/10/22 03:22:34;;;;;;;2.85;1.38;;;8.70;99.90;;;;;;5006747;28;20803;-82
2021/10/22 03:25:00;;;;;;;1.93;1.10;;;8.60;99.90;;;;;;5000926;28;20202;-82
2021/10/22 03:27:26;;;;;;;3.87;0.67;;;8.70;99.90;;;;;;5009159;28;20309;-83
2021/10/22 03:29:53;;;;;;;5.90;0.95;;;8.60;99.90;;;;;;5001164;28;20421;-83
2021/10/22 03:32:19;;;;;;;6.88;1.33;;;8.60;99.90;;;;;;5010167;28;20171;-83
2021/10/22 03:34:45;;;;;;;4.60;0.93;;;8.60;99.90;;;;;;5013206;28;20273;-83
2021/10/22 03:37:11;;;;;;;2.83;0.80;;;8.60;99.90;;;;;;5011657;28;20217;-83
2021/10/22 03:39:40;;;;;;;3.30;1.10;;;8.60;99.90;;;;;;4982302;28;20505;-83
2021/10/22 03:42:06;;;;;;;1.50;1.33;;;8.60;99.90;;;;;;5005699;28;20186;-83
2021/10/22 03:44:32;;;;;;;3.50;1.20;;;8.70;99.90;;;;;;5018754;28;20197;-84
2021/10/22 03:46:58;;;;;;;4.28;1.42;;;8.80;99.90;;;;;;5003992;28;20203;-83
2021/10/22 03:49:23;;;;;;;3.03;1.60;;;8.70;99.90;;;;;;4999803;28;20171;-83
2021/10/22 03:51:49;;;;;;;2.90;1.10;;;8.80;99.90;;;;;;5017116;28;20182;-83
2021/10/22 03:54:15;;;;;;;3.38;2.03;;;8.80;99.90;;;;;;5017271;28;20201;-84
2021/10/22 03:56:41;;;;;;;3.57;0.87;;;8.70;99.90;;;;;;5020842;28;20652;-83
2021/10/22 03:59:06;;;;;;;1.40;0.90;;;8.80;99.90;;;;;;5024323;28;20208;-83
2021/10/22 04:01:32;;;;;;;4.90;1.03;;;8.70;99.90;;;;;;5017180;28;20448;-86
2021/10/22 04:03:58;;;;;;;2.87;1.30;;;8.60;99.90;;;;;;5021701;28;20669;-84
2021/10/22 04:06:23;;;;;;;5.10;1.10;;;8.60;99.90;;;;;;5005939;28;20300;-86
2021/10/22 04:08:49;;;;;;;14.30;1.43;;;8.70;99.90;;;;;;5002565;28;20250;-83
2021/10/22 04:11:14;;;;;;;2.33;1.47;;;8.80;99.90;;;;;;4986040;28;20681;-83
2021/10/22 04:13:40;;;;;;;9.40;1.13;;;8.60;99.90;;;;;;5001274;28;20226;-83
2021/10/22 04:16:06;;;;;;;10.40;1.93;;;8.60;99.90;;;;;;5018885;28;20616;-83
2021/10/22 04:18:31;;;;;;;11.83;1.50;;;8.60;99.90;;;;;;5007099;28;20186;-83
2021/10/22 04:20:57;;;;;;;5.43;1.30;;;8.60;99.90;;;;;;5013545;28;20200;-83
2021/10/22 04:23:23;;;;;;;3.47;1.03;;;8.70;99.90;;;;;;5003081;28;20202;-82
2021/10/22 04:25:53;;;;;;;12.23;1.50;;;8.60;99.90;;;;;;5002968;28;20337;-83
2021/10/22 04:28:19;;;;;;;1.40;0.90;;;8.60;99.90;;;;;;5014419;28;20181;-83
2021/10/22 04:30:52;;;;;;;1.37;0.80;;;8.60;99.90;;;;;;5007595;28;20181;-83
2021/10/22 04:33:18;;;;;;;2.70;0.95;;;8.60;99.90;;;;;;5014314;28;20197;-83
2021/10/22 04:35:43;;;;;;;2.83;0.90;;;8.60;99.90;;;;;;5033287;28;20213;-82
2021/10/22 04:40:51;;;;;;;1.73;0.95;;;8.60;99.90;;;;;;5006011;28;20178;-83
2021/10/22 04:43:17;;;;;;;6.68;1.27;;;8.50;99.90;;;;;;5021497;28;20253;-84
2021/10/22 04:45:44;;;;;;;1.60;0.97;;;8.60;99.90;;;;;;5018567;28;20226;-83
2021/10/22 04:48:11;;;;;;;1.60;0.93;;;8.80;99.90;;;;;;5002733;28;20269;-85
2021/10/22 04:50:45;;;;;;;4.20;1.08;;;8.70;99.90;;;;;;5003066;28;20664;-85
2021/10/22 04:53:14;;;;;;;4.75;0.90;;;8.80;99.90;;;;;;5007102;28;20265;-84
2021/10/22 04:55:40;;;;;;;1.40;0.75;;;8.80;99.90;;;;;;4984976;28;20175;-84
2021/10/22 04:58:09;;;;;;;1.85;1.50;;;8.60;99.90;;;;;;4967979;28;20178;-86
2021/10/22 05:00:35;;;;;;;4.25;1.30;;;8.60;99.90;;;;;;4984517;28;20175;-85
2021/10/22 05:03:01;;;;;;;4.77;1.20;;;8.60;99.90;;;;;;5000419;28;20189;-84
2021/10/22 05:05:27;;;;;;;2.20;0.75;;;8.60;99.90;;;;;;5003520;28;20182;-85
2021/10/22 05:07:55;;;;;;;1.77;1.00;;;8.60;99.90;;;;;;4968338;28;20172;-86
2021/10/22 05:10:21;;;;;;;2.28;0.80;;;8.70;99.90;;;;;;4965904;28;20243;-85
2021/10/22 05:12:46;;;;;;;2.20;0.77;;;8.70;99.90;;;;;;5007411;28;20218;-85
2021/10/22 05:15:15;;;;;;;3.37;1.10;;;8.60;99.90;;;;;;5009798;28;20217;-85
2021/10/22 05:17:40;;;;;;;4.55;1.10;;;8.60;99.90;;;;;;4990389;28;20182;-83
2021/10/22 05:20:09;;;;;;;9.90;1.40;;;8.60;99.90;;;;;;5003597;28;20691;-84
2021/10/22 05:22:35;;;;;;;1.67;1.00;;;8.70;99.90;;;;;;5002211;28;20206;-84
2021/10/22 05:25:02;;;;;;;2.88;1.17;;;9.00;99.90;;;;;;4999460;28;20233;-84
2021/10/22 05:27:28;;;;;;;5.45;1.00;;;9.10;99.90;;;;;;5017663;28;20205;-84
2021/10/22 05:29:53;;;;;;;2.80;1.10;;;9.20;99.90;;;;;;4987230;28;20211;-85
2021/10/22 05:32:19;;;;;;;2.93;1.30;;;9.30;99.90;;;;;;5000298;28;20175;-84
2021/10/22 05:34:45;;;;;;;3.50;1.00;;;9.40;99.90;;;;;;5000155;28;20197;-84
2021/10/22 05:37:11;;;;;;;2.80;1.20;;;9.20;99.90;;;;;;5018493;28;20663;-84
2021/10/22 05:39:37;;;;;;;5.90;1.00;;;9.20;99.90;;;;;;4984430;28;20190;-86
2021/10/22 05:42:05;;;;;;;2.50;1.10;;;9.40;99.90;;;;;;5009106;28;20269;-83
2021/10/22 05:44:31;;;;;;;5.88;1.00;;;9.40;99.90;;;;;;5001350;28;20219;-86
2021/10/22 05:46:57;;;;;;;5.17;1.43;;;9.40;99.90;;;;;;4978608;28;20294;-87
2021/10/22 05:49:23;;;;;;;2.08;1.10;;;9.40;99.90;;;;;;5002907;28;20638;-86
2021/10/22 05:51:51;;;;;;;3.75;1.00;;;9.30;99.90;;;;;;5000926;28;20167;-86
2021/10/22 05:54:17;;;;;;;1.50;0.90;;;8.80;99.90;;;;;;4967142;28;20496;-84
2021/10/22 05:56:43;;;;;;;1.60;1.10;;;8.60;99.90;;;;;;4984321;28;20265;-84
2021/10/22 05:59:09;;;;;;;2.25;0.90;;;8.50;99.90;;;;;;5000617;28;20576;-84
2021/10/22 06:01:39;;;;;;;2.07;1.10;;;8.50;99.90;;;;;;4982681;28;20209;-84
2021/10/22 06:04:07;;;;;;;4.93;1.35;;;8.50;99.90;;;;;;4966772;28;20202;-85
2021/10/22 06:06:33;;;;;;;5.10;1.90;;;8.50;99.90;;;;;;4983578;28;20222;-83
2021/10/22 06:08:59;;;;;;;9.40;2.17;;;8.60;99.90;;;;;;5001641;28;20175;-84
2021/10/22 06:11:25;;;;;;;4.30;2.10;;;8.50;99.90;;;;;;5012387;28;20205;-84
2021/10/22 06:13:51;;;;;;;6.72;1.88;;;8.50;99.90;;;;;;4996601;28;20197;-85
2021/10/22 06:16:16;;;;;;;2.77;1.30;;;8.50;99.90;;;;;;4966899;28;20175;-84
2021/10/22 06:18:51;;;;;;;4.07;1.70;;;8.60;99.90;;;;;;4999423;28;20167;-84
2021/10/22 06:24:02;;;;;;;7.07;1.42;;;8.70;99.90;;;;;;4998182;28;20287;-85
2021/10/22 06:26:39;;;;;;;8.20;1.65;;;8.70;99.90;;;;;;4999155;28;20206;-86
2021/10/22 06:29:06;;;;;;;2.83;1.85;;;8.70;99.90;;;;;;4999113;28;20167;-83
2021/10/22 06:31:32;;;;;;;2.90;1.05;;;8.80;99.90;;;;;;5000772;28;20668;-84
2021/10/22 06:34:00;;;;;;;6.25;1.30;;;8.80;99.90;;;;;;4965920;28;20202;-84
2021/10/22 06:36:26;;;;;;;6.93;2.08;;;8.80;99.90;;;;;;4982928;28;20668;-84
2021/10/22 06:38:52;;;;;;;7.90;1.65;;;8.90;99.90;;;;;;5000101;28;20645;-84
2021/10/22 06:41:18;;;;;;;7.87;1.50;;;8.90;99.90;;;;;;4998291;28;20185;-84
2021/10/22 06:43:44;;;;;;;3.47;1.33;;;9.00;99.90;;;;;;4983321;28;20461;-83
2021/10/22 06:46:13;;;;;;;2.88;1.38;;;9.00;99.90;;;;;;5001724;28;20449;-84
2021/10/22 06:48:40;;;;;;;4.93;1.55;;;9.10;99.90;;;;;;4983459;28;20186;-84
2021/10/22 06:51:08;;;;;;;3.58;1.48;;;9.10;99.90;;;;;;4981892;28;20167;-85
2021/10/22 06:53:36;;;;;;;3.47;1.33;;;9.00;99.90;;;;;;4999525;28;20193;-83
2021/10/22 06:56:01;;;;;;;2.10;1.10;;;9.10;99.90;;;;;;4997806;28;20163;-84
2021/10/22 06:58:27;;;;;;;1.90;1.30;;;9.10;99.90;;;;;;4981194;28;20233;-85
2021/10/22 07:00:52;;;;;;;4.60;1.67;;;9.00;99.90;;;;;;4999404;28;20178;-85
2021/10/22 07:03:25;;;;;;;3.93;1.40;;;9.10;99.90;;;;;;4999859;28;20179;-84
2021/10/22 07:07:13;;;;;;;9.73;1.33;;;9.10;99.90;;;;;;4999355;28;20662;-85
2021/10/22 07:08:37;;;;;;;2.28;1.45;;;9.20;99.90;;;;;;4984084;28;20242;-85
2021/10/22 07:11:02;;;;;;;6.00;1.03;;;9.10;99.90;;;;;;4950138;28;20271;-82
2021/10/22 07:13:28;;;;;;;7.13;1.90;;;9.10;99.90;;;;;;4965003;28;20202;-82
2021/10/22 07:15:53;;;;;;;7.20;1.63;;;9.10;99.90;;;;;;4999271;28;20553;-84
2021/10/22 07:18:19;;;;;;;3.03;1.43;;;9.20;99.90;;;;;;4981746;28;20244;-85
2021/10/22 07:20:45;;;;;;;9.47;1.97;;;9.20;99.90;;;;;;4965340;28;20183;-82
2021/10/22 07:23:11;;;;;;;3.95;1.40;;;9.20;99.90;;;;;;4983133;28;20182;-81
2021/10/22 07:25:39;;;;;;;3.35;1.08;;;9.20;99.90;;;;;;4976382;28;20178;-83
2021/10/22 07:28:16;;;;;;;3.65;2.33;;;9.20;99.90;;;;;;4960879;28;20191;-83
2021/10/22 07:30:44;;;;;;;8.23;1.50;;;9.20;99.90;;;;;;4944936;28;20704;-83
2021/10/22 07:33:11;;;;;;;4.97;1.40;;;9.20;99.90;;;;;;4992427;28;20191;-82
2021/10/22 07:35:41;;;;;;;3.92;1.52;;;9.50;99.90;;;;;;4999285;28;20170;-83
2021/10/22 07:38:10;;;;;;;5.07;1.50;;;9.60;99.90;;;;;;4996572;28;20179;-84
2021/10/22 07:40:45;;;;;;;5.80;1.30;;;9.40;99.90;;;;;;5005729;28;20402;-84
2021/10/22 07:43:11;;;;;;;13.43;2.00;;;9.40;99.90;;;;;;4998279;28;20657;-85
2021/10/22 07:45:37;;;;;;;2.90;1.40;;;9.30;99.90;;;;;;4999441;28;20174;-83
2021/10/22 07:48:03;;;;;;;2.17;1.10;;;9.30;99.90;;;;;;4990248;28;20792;-83
2021/10/22 07:50:29;;;;;;;3.20;1.38;;;9.30;99.90;;;;;;5011616;28;20426;-83
2021/10/22 07:52:54;;;;;;;3.73;1.90;;;9.40;99.90;;;;;;4998039;28;20183;-84
2021/10/22 07:55:21;;;;;;;2.07;1.47;;;9.30;99.90;;;;;;4979932;28;20206;-83
2021/10/22 07:57:47;;;;;;;1.30;1.20;;;9.30;99.90;;;;;;4967125;28;20185;-83
2021/10/22 08:00:13;;;;;;;3.47;1.50;;;9.40;99.90;;;;;;4998038;28;20175;-86
2021/10/22 08:02:39;;;;;;;2.70;1.40;;;9.40;99.90;;;;;;4993276;28;20182;-84
2021/10/22 08:05:05;;;;;;;9.13;1.52;;;9.40;99.90;;;;;;4997345;28;20463;-83
2021/10/22 08:07:31;;;;;;;5.00;1.27;;;9.40;99.90;;;;;;5016767;28;20703;-83
2021/10/22 08:10:00;;;;;;;6.33;1.80;;;9.40;99.90;;;;;;5001048;28;20171;-84
2021/10/22 08:12:27;;;;;;;2.05;1.10;;;9.40;99.90;;;;;;4977052;28;20695;-83
2021/10/22 08:14:52;;;;;;;1.98;1.30;;;9.20;99.90;;;;;;4998395;28;20206;-83
2021/10/22 08:17:19;;;;;;;5.53;1.60;;;9.20;99.90;;;;;;4987294;28;20236;-83
2021/10/22 08:19:51;;;;;;;2.58;1.42;;;9.20;99.90;;;;;;4995948;28;20285;-83
2021/10/22 08:22:27;;;;;;;8.93;1.85;;;9.20;99.90;;;;;;4988010;28;20677;-83
2021/10/22 08:25:11;;;;;;;6.50;1.77;;;9.30;99.90;;;;;;4960638;28;20205;-80
2021/10/22 08:27:43;;;;;;;3.08;1.55;;;9.40;99.90;;;;;;4989337;28;20317;-82
2021/10/22 08:30:14;;;;;;;2.80;1.95;;;9.40;99.90;;;;;;4999510;28;20653;-82
2021/10/22 08:32:41;;;;;;;5.03;1.55;;;9.40;99.90;;;;;;5003102;28;20178;-81
2021/10/22 08:35:07;;;;;;;3.92;1.58;;;9.40;99.90;;;;;;5016729;28;20205;-82
2021/10/22 08:37:37;;;;;;;1.60;1.30;;;9.50;99.90;;;;;;4981361;28;20638;-83
2021/10/22 08:40:04;;;;;;;4.90;1.15;;;9.50;99.90;;;;;;4989960;28;20187;-82
2021/10/22 08:42:30;;;;;;;5.05;1.70;;;9.40;99.90;;;;;;4993240;28;20317;-85
2021/10/22 08:44:57;;;;;;;3.10;1.23;;;9.50;99.90;;;;;;5001925;28;20190;-85
2021/10/22 08:47:26;;;;;;;4.35;1.92;;;9.60;99.90;;;;;;5000904;28;20447;-83
2021/10/22 08:50:08;;;;;;;8.18;2.65;;;9.60;99.90;;;;;;5018347;28;20241;-83
2021/10/22 08:52:35;;;;;;;3.47;1.40;;;9.60;99.90;;;;;;5002233;28;20573;-83
2021/10/22 08:55:06;;;;;;;5.45;1.70;;;9.60;99.90;;;;;;5000164;28;20214;-83
2021/10/22 08:57:32;;;;;;;5.32;1.50;;;9.60;99.90;;;;;;5017852;28;20178;-82
2021/10/22 08:59:59;;;;;;;4.90;1.95;;;9.60;99.90;;;;;;5020524;28;20170;-84
2021/10/22 09:02:28;;;;;;;2.25;1.85;;;9.60;99.90;;;;;;5018064;28;20178;-84
2021/10/22 09:05:01;;;;;;;5.57;1.73;;;9.60;99.90;;;;;;5000124;28;20234;-85
2021/10/22 09:07:39;;;;;;;2.50;1.33;;;9.70;99.90;;;;;;4994017;28;20207;-84
2021/10/22 09:10:07;;;;;;;5.13;2.10;;;9.70;99.90;;;;;;4980695;28;20645;-82
2021/10/22 09:12:47;;;;;;;4.63;2.03;;;9.70;99.90;;;;;;4973158;28;20174;-82
2021/10/22 09:15:25;;;;;;;6.72;1.80;;;9.70;99.90;;;;;;4981810;28;20194;-84
2021/10/22 09:17:52;;;;;;;2.67;1.50;;;9.80;99.90;;;;;;4994088;28;20197;-84
2021/10/22 09:20:18;;;;;;;2.83;2.00;;;9.80;99.90;;;;;;5018292;28;20182;-84
2021/10/22 09:22:50;;;;;;;1.63;1.45;;;9.90;99.90;;;;;;4981863;28;20270;-84
2021/10/22 09:25:21;;;;;;;5.13;1.45;;;10.00;99.90;;;;;;4993318;28;20232;-82
2021/10/22 09:27:57;;;;;;;2.30;1.52;;;9.90;99.90;;;;;;4994732;28;20271;-83
2021/10/22 09:30:23;;;;;;;2.72;1.25;;;10.00;99.90;;;;;;5004005;28;20182;-85
2021/10/22 09:32:50;;;;;;;6.93;2.03;;;10.00;99.90;;;;;;4995759;28;20554;-85
2021/10/22 09:35:38;;;;;;;4.30;1.67;;;10.00;99.90;;;;;;4983907;28;20203;-85
2021/10/22 09:38:17;;;;;;;2.47;1.65;;;10.00;99.90;;;;;;5016480;28;20673;-84
2021/10/22 09:40:45;;;;;;;4.50;1.80;;;10.00;99.90;;;;;;4983287;28;20173;-83
2021/10/22 09:43:28;;;;;;;5.18;2.40;;;10.00;99.90;;;;;;4989206;28;20286;-83
2021/10/22 09:46:13;;;;;;;1.75;1.60;;;9.90;99.90;;;;;;4995300;28;20232;-85
2021/10/22 09:48:41;;;;;;;7.03;1.50;;;10.00;99.90;;;;;;5004497;28;20174;-87
2021/10/22 09:51:28;;;;;;;3.88;1.90;;;10.10;99.90;;;;;;5003372;28;20237;-84
2021/10/22 09:54:08;;;;;;;3.72;1.75;;;10.10;99.90;;;;;;5011890;28;20250;-83
2021/10/22 09:56:34;;;;;;;3.60;1.70;;;10.20;99.90;;;;;;5002859;28;20178;-85
2021/10/22 09:59:16;;;;;;;4.00;1.50;;;10.20;99.90;;;;;;5001788;28;20206;-83
2021/10/22 10:01:43;;;;;;;3.78;1.92;;;10.30;99.90;;;;;;5010111;28;20521;-85
2021/10/22 10:04:14;;;;;;;2.25;1.45;;;10.40;99.90;;;;;;4981209;28;20198;-83
2021/10/22 10:06:43;;;;;;;3.15;1.52;;;10.30;99.90;;;;;;5004245;28;20198;-83
2021/10/22 10:09:10;;;;;;;2.75;1.63;;;10.30;99.90;;;;;;4988743;28;20178;-85
2021/10/22 10:11:38;;;;;;;5.10;2.00;;;10.20;99.90;;;;;;5018478;28;20170;-83
2021/10/22 10:14:04;;;;;;;13.35;2.10;;;10.20;99.90;;;;;;4982796;28;21079;-82
2021/10/22 10:16:32;;;;;;;3.78;1.55;;;10.20;99.90;;;;;;4987634;28;20645;-85
2021/10/22 10:19:33;;;;;;;3.50;1.45;;;10.20;99.90;;;;;;4998750;28;20537;-83
2021/10/22 10:22:05;;;;;;;3.85;2.03;;;10.20;99.90;;;;;;4946928;28;20186;-82
2021/10/22 10:24:37;;;;;;;3.95;1.70;;;10.10;99.90;;;;;;5015302;28;20672;-83
2021/10/22 10:27:12;;;;;;;2.40;2.20;;;10.10;99.90;;;;;;5012234;28;20218;-83
2021/10/22 10:29:44;;;;;;;2.42;1.90;;;10.10;99.90;;;;;;4985278;28;20171;-82
2021/10/22 10:32:13;;;;;;;2.08;1.75;;;10.10;99.90;;;;;;4968985;28;20201;-83
2021/10/22 10:34:43;;;;;;;5.40;2.80;;;10.00;99.90;;;;;;4960532;28;20674;-82
2021/10/22 10:37:36;;;;;;;5.43;2.42;;;10.00;99.90;;;;;;4983834;28;20328;-84
2021/10/22 10:40:12;;;;;;;6.68;2.00;;;10.00;99.90;;;;;;5005382;28;20542;-81
2021/10/22 10:42:47;;;;;;;4.30;1.88;;;10.00;99.90;;;;;;4999099;28;20204;-81
2021/10/22 10:45:25;;;;;;;8.10;3.10;;;10.10;99.90;;;;;;4983314;28;20554;-83
2021/10/22 10:48:01;;;;;;;8.43;2.50;;;10.20;99.90;;;;;;4984806;28;20208;-82
2021/10/22 10:50:27;;;;;;;2.72;2.00;;;10.20;99.90;;;;;;4991667;28;20169;-84
2021/10/22 10:52:58;;;;;;;2.63;1.77;;;10.20;99.90;;;;;;5010015;28;20185;-83
2021/10/22 10:55:31;;;;;;;2.55;1.77;;;10.20;99.90;;;;;;4986271;28;20193;-83
2021/10/22 10:58:22;;;;;;;5.63;1.73;;;10.10;99.90;;;;;;5017259;28;20177;-82
2021/10/22 11:01:07;;;;;;;2.05;1.83;;;10.20;99.90;;;;;;5004226;28;20241;-84
2021/10/22 11:03:43;;;;;;;8.43;2.42;;;10.30;99.90;;;;;;4986693;28;20265;-83
2021/10/22 11:06:36;;;;;;;4.50;1.90;;;10.30;99.90;;;;;;5004495;28;20273;-85
2021/10/22 11:09:03;;;;;;;4.30;1.90;;;10.20;99.90;;;;;;4984355;28;20171;-83
2021/10/22 11:11:34;;;;;;;6.22;2.17;;;10.20;99.90;;;;;;5020792;28;20209;-85
2021/10/22 11:14:08;;;;;;;6.30;2.13;;;10.20;99.90;;;;;;5019985;28;20665;-83
2021/10/22 11:16:47;;;;;;;4.00;1.50;;;10.10;99.90;;;;;;5003538;28;20541;-82
2021/10/22 11:19:14;;;;;;;3.58;1.98;;;10.20;99.90;;;;;;5012240;28;20184;-82
2021/10/22 11:21:47;;;;;;;3.72;2.20;;;10.20;99.90;;;;;;5009203;28;20696;-84
2021/10/22 11:24:16;;;;;;;2.75;2.20;;;10.20;99.90;;;;;;5002651;28;20209;-84
2021/10/22 11:26:41;;;;;;;3.83;2.10;;;10.20;99.90;;;;;;5002297;28;20194;-84
2021/10/22 11:29:19;;;;;;;2.00;1.80;;;10.20;99.90;;;;;;5005020;28;20190;-83
2021/10/22 11:31:54;;;;;;;7.63;2.45;;;10.20;99.90;;;;;;5005243;28;20408;-81
2021/10/22 11:34:28;;;;;;;2.42;1.55;;;10.30;99.90;;;;;;4991067;28;20604;-82
2021/10/22 11:37:11;;;;;;;4.10;1.52;;;10.30;99.90;;;;;;5014496;28;20181;-82
2021/10/22 11:39:39;;;;;;;3.42;1.20;;;10.40;99.90;;;;;;5019911;28;20209;-83
2021/10/22 11:42:10;;;;;;;7.38;2.03;;;10.50;99.90;;;;;;5025198;28;20208;-81
2021/10/22 11:44:44;;;;;;;2.88;1.88;;;10.60;99.90;;;;;;5017781;28;20209;-83
2021/10/22 11:47:10;;;;;;;5.80;1.42;;;10.70;99.90;;;;;;4991468;28;20209;-84
2021/10/22 11:49:37;;;;;;;7.68;1.90;;;10.80;99.90;;;;;;4992217;28;20526;-83
2021/10/22 11:52:05;;;;;;;9.00;2.25;;;10.80;99.90;;;;;;4974472;28;20186;-83
2021/10/22 11:54:36;;;;;;;3.42;1.90;;;10.90;99.90;;;;;;5007531;28;20268;-83
2021/10/22 11:57:12;;;;;;;2.47;1.40;;;10.90;99.90;;;;;;5010754;28;20201;-83
2021/10/22 11:59:44;;;;;;;3.47;1.73;;;11.00;99.90;;;;;;5007664;28;20176;-83
2021/10/22 12:02:11;;;;;;;3.72;1.20;;;10.90;99.90;;;;;;5006723;28;20177;-84
2021/10/22 12:04:37;;;;;;;4.43;1.50;;;10.90;99.90;;;;;;4989020;28;20229;-83
2021/10/22 12:07:07;;;;;;;1.93;1.40;;;10.90;99.90;;;;;;4997593;28;20209;-82
2021/10/22 12:09:38;;;;;;;3.20;1.67;;;10.90;99.90;;;;;;4999879;28;20177;-82
2021/10/22 12:12:09;;;;;;;3.67;1.10;;;11.00;99.90;;;;;;4975515;28;20187;-83
2021/10/22 12:14:40;;;;;;;4.60;1.23;;;11.10;99.90;;;;;;4974026;28;20685;-82
2021/10/22 12:17:09;;;;;;;1.48;1.00;;;11.00;99.90;;;;;;4971406;28;20182;-84
2021/10/22 12:19:39;;;;;;;4.18;1.35;;;11.00;99.90;;;;;;4991201;28;20183;-83
2021/10/22 12:22:05;;;;;;;5.22;1.58;;;10.90;99.90;;;;;;5010083;28;20711;-83
2021/10/22 12:24:56;;;;;;;2.90;1.33;;;10.90;99.90;;;;;;4991153;28;20206;-83
2021/10/22 12:27:29;;;;;;;3.35;1.52;;;10.90;99.90;;;;;;5009586;28;20964;-83
2021/10/22 12:29:58;;;;;;;3.00;1.40;;;10.80;99.90;;;;;;4992458;28;20174;-84
2021/10/22 12:32:47;;;;;;;1.33;1.20;;;10.90;99.90;;;;;;4991716;28;20198;-83
2021/10/22 12:35:12;;;;;;;3.15;1.55;;;10.80;99.90;;;;;;5013668;28;20199;-83
2021/10/22 12:37:41;;;;;;;1.40;1.20;;;10.80;99.90;;;;;;4996036;28;20174;-82
2021/10/22 12:40:25;;;;;;;6.80;1.60;;;10.80;99.90;;;;;;5006403;28;20189;-84
2021/10/22 12:43:12;;;;;;;3.17;1.40;;;10.90;99.90;;;;;;5028712;28;20175;-83
2021/10/22 12:46:05;;;;;;;1.75;1.35;;;10.90;99.90;;;;;;4994220;28;20549;-82
2021/10/22 12:48:38;;;;;;;4.05;1.88;;;10.90;99.90;;;;;;5002962;28;20194;-84
2021/10/22 12:51:08;;;;;;;2.80;2.03;;;10.90;99.90;;;;;;4975442;28;20183;-83
2021/10/22 12:53:38;;;;;;;3.00;1.65;;;10.90;99.90;;;;;;4991838;28;20191;-83
2021/10/22 12:56:07;;;;;;;5.85;1.55;;;10.90;99.90;;;;;;4991762;28;20193;-83
2021/10/22 12:58:33;;;;;;;6.32;1.30;;;10.90;99.90;;;;;;4990694;28;20186;-82
2021/10/22 13:01:15;;;;;;;5.75;1.70;;;10.90;99.90;;;;;;5007656;28;20178;-82
2021/10/22 13:03:47;;;;;;;3.35;1.42;;;10.90;99.90;;;;;;4970114;28;20194;-83
2021/10/22 13:06:36;;;;;;;7.53;1.55;;;10.90;99.90;;;;;;5017281;28;20190;-83